Time;durP1;ratioP1;P1;durP2;ratioP2;P2;SDS_P1;SDS_P2;PMS_P1;PMS_P2;Temp;Humidity;BMP_temperature;BMP_pressure;BME280_temperature;BME280_humidity;BME280_pressure;Samples;Min_cycle;Max_cycle;Signal;HPM_P1;HPM_P2
2021/12/18 00:00:34;;;;;;;9.45;6.35;;;18.40;82.40;;;;;;5052067;28;20025;-78
2021/12/18 00:03:00;;;;;;;9.98;6.93;;;18.40;82.20;;;;;;5053977;28;20108;-78
2021/12/18 00:05:26;;;;;;;9.10;6.65;;;18.40;82.40;;;;;;5053335;28;20043;-79
2021/12/18 00:07:52;;;;;;;9.45;6.60;;;18.30;82.40;;;;;;5053428;28;20035;-79
2021/12/18 00:10:20;;;;;;;8.73;6.55;;;18.30;82.50;;;;;;5053305;28;20017;-78
2021/12/18 00:12:50;;;;;;;9.65;7.15;;;18.30;82.40;;;;;;5053317;28;20480;-79
2021/12/18 00:15:25;;;;;;;7.97;6.55;;;18.20;82.40;;;;;;5041823;28;20018;-79
2021/12/18 00:17:50;;;;;;;8.95;6.93;;;18.30;82.60;;;;;;5033311;28;20026;-78
2021/12/18 00:20:17;;;;;;;10.38;7.60;;;18.40;82.60;;;;;;5033348;28;20049;-78
2021/12/18 00:22:44;;;;;;;8.70;6.65;;;18.30;82.70;;;;;;5033226;28;20057;-79
2021/12/18 00:25:10;;;;;;;8.75;6.28;;;18.20;82.40;;;;;;5015477;28;20370;-78
2021/12/18 00:27:36;;;;;;;8.80;6.60;;;18.20;82.20;;;;;;5032875;28;20029;-78
2021/12/18 00:30:04;;;;;;;8.00;6.22;;;18.20;82.20;;;;;;5033480;28;20022;-78
2021/12/18 00:32:30;;;;;;;8.75;6.40;;;18.20;82.20;;;;;;5015219;28;20466;-78
2021/12/18 00:34:55;;;;;;;9.57;6.43;;;18.20;82.20;;;;;;5033097;28;20049;-79
2021/12/18 00:37:21;;;;;;;8.43;6.70;;;18.20;82.40;;;;;;5032603;28;20025;-79
2021/12/18 00:39:58;;;;;;;7.63;5.85;;;18.20;82.50;;;;;;5033063;28;20053;-79
2021/12/18 00:42:40;;;;;;;9.45;6.85;;;18.20;82.40;;;;;;5032380;28;20059;-79
2021/12/18 00:45:14;;;;;;;8.65;6.00;;;18.10;82.40;;;;;;5032818;28;20044;-79
2021/12/18 00:47:41;;;;;;;9.02;6.22;;;18.10;82.50;;;;;;5014712;28;20043;-79
2021/12/18 00:50:14;;;;;;;9.55;6.15;;;18.10;82.50;;;;;;5032513;28;20022;-79
2021/12/18 00:52:40;;;;;;;7.88;6.40;;;18.10;82.40;;;;;;5014357;28;20500;-80
2021/12/18 00:55:06;;;;;;;8.00;5.65;;;18.10;82.40;;;;;;5032756;28;20120;-79
2021/12/18 00:57:32;;;;;;;8.70;6.32;;;18.10;82.50;;;;;;5032603;28;20558;-80
2021/12/18 01:00:03;;;;;;;8.70;6.40;;;18.10;82.50;;;;;;5032619;28;20017;-80
2021/12/18 01:02:30;;;;;;;9.52;5.68;;;18.10;82.30;;;;;;5014432;28;20031;-80
2021/12/18 01:04:56;;;;;;;8.90;6.57;;;18.10;82.00;;;;;;5032471;28;20104;-80
2021/12/18 01:07:23;;;;;;;8.82;6.38;;;18.10;82.00;;;;;;5014123;28;20136;-80
2021/12/18 01:12:28;;;;;;;8.38;6.00;;;18.10;82.20;;;;;;5031758;28;20029;-79
2021/12/18 01:23:28;;;;;;;9.13;6.40;;;18.10;81.60;;;;;;5029505;28;20040;-79
2021/12/18 01:25:56;;;;;;;9.55;6.70;;;18.10;81.90;;;;;;5051513;28;20484;-79
2021/12/18 01:28:23;;;;;;;7.60;6.15;;;18.00;82.00;;;;;;5033800;28;20410;-81
2021/12/18 01:30:49;;;;;;;8.07;6.32;;;18.10;82.20;;;;;;5051912;28;20027;-80
2021/12/18 01:33:15;;;;;;;7.88;6.55;;;18.00;82.10;;;;;;5051834;28;20430;-81
2021/12/18 01:35:42;;;;;;;8.02;6.38;;;18.10;82.20;;;;;;5051670;28;20025;-80
2021/12/18 01:38:12;;;;;;;8.02;6.10;;;18.00;82.00;;;;;;5033794;28;20048;-81
2021/12/18 01:40:38;;;;;;;8.75;7.03;;;18.10;82.20;;;;;;5051447;28;20526;-80
2021/12/18 01:45:47;;;;;;;10.38;6.82;;;18.10;82.20;;;;;;5051770;28;20060;-80
2021/12/18 01:53:29;;;;;;;8.25;6.28;;;18.10;82.10;;;;;;5051127;28;20040;-81
2021/12/18 01:55:55;;;;;;;9.40;7.32;;;18.10;82.00;;;;;;5051446;28;20025;-79
2021/12/18 01:58:24;;;;;;;8.85;6.85;;;18.10;82.30;;;;;;5051279;28;20484;-80
2021/12/18 02:00:55;;;;;;;8.95;6.82;;;18.10;82.10;;;;;;5051417;28;20017;-79
2021/12/18 02:03:21;;;;;;;8.52;6.55;;;18.10;82.20;;;;;;5051246;28;20055;-79
2021/12/18 02:05:48;;;;;;;8.40;6.95;;;18.10;81.90;;;;;;5051009;28;20025;-79
2021/12/18 02:08:21;;;;;;;9.18;7.07;;;18.10;82.40;;;;;;5051383;28;20025;-79
2021/12/18 02:10:53;;;;;;;9.10;7.38;;;18.10;82.30;;;;;;5051210;28;20025;-79
2021/12/18 02:21:18;;;;;;;8.48;7.18;;;18.10;82.20;;;;;;5031273;28;20024;-80
2021/12/18 02:23:45;;;;;;;7.57;6.40;;;18.10;82.30;;;;;;5030559;28;20528;-80
2021/12/18 02:26:11;;;;;;;7.20;6.32;;;18.10;82.30;;;;;;5031226;28;20076;-79
2021/12/18 02:28:37;;;;;;;7.93;6.30;;;18.10;82.20;;;;;;5030632;28;20318;-78
2021/12/18 02:31:04;;;;;;;9.63;7.28;;;18.10;82.10;;;;;;5031339;28;20032;-79
2021/12/18 02:33:29;;;;;;;7.65;6.28;;;18.10;82.00;;;;;;5030834;28;20087;-79
2021/12/18 02:35:58;;;;;;;8.32;6.75;;;18.10;82.40;;;;;;5030986;28;20049;-79
2021/12/18 02:38:28;;;;;;;8.80;6.95;;;18.10;82.40;;;;;;5030580;28;20029;-79
2021/12/18 02:44:03;;;;;;;7.65;6.55;;;18.10;82.10;;;;;;4969950;28;20586;-80
2021/12/18 02:46:29;;;;;;;8.15;6.90;;;18.10;82.10;;;;;;4969947;28;20031;-79
2021/12/18 02:48:56;;;;;;;7.47;6.25;;;18.20;82.20;;;;;;4999500;28;20045;-79
2021/12/18 02:51:22;;;;;;;7.13;6.30;;;18.10;82.30;;;;;;5030644;28;20049;-80
2021/12/18 02:53:51;;;;;;;7.68;6.63;;;18.10;82.20;;;;;;5030811;28;20030;-80
2021/12/18 02:56:22;;;;;;;8.35;7.10;;;18.10;82.20;;;;;;5030779;28;20028;-80
2021/12/18 02:58:50;;;;;;;8.30;7.40;;;18.20;82.40;;;;;;5030845;28;20099;-81
2021/12/18 03:01:20;;;;;;;7.65;6.63;;;18.10;81.40;;;;;;5012899;28;20029;-80
2021/12/18 03:03:47;;;;;;;7.47;6.45;;;18.10;82.00;;;;;;5031014;28;20021;-81
2021/12/18 03:06:51;;;;;;;7.88;6.75;;;18.10;82.00;;;;;;5031002;28;20469;-81
2021/12/18 03:25:17;;;;;;;6.43;5.82;;;18.20;82.10;;;;;;5036783;28;20481;-79
2021/12/18 03:27:44;;;;;;;7.93;6.65;;;18.20;82.00;;;;;;5042904;28;20480;-79
2021/12/18 03:30:10;;;;;;;8.40;6.65;;;18.10;82.00;;;;;;5050451;28;20021;-79
2021/12/18 03:32:35;;;;;;;7.75;6.43;;;18.20;81.90;;;;;;5045047;28;20461;-79
2021/12/18 03:35:02;;;;;;;8.38;6.68;;;18.20;81.90;;;;;;5032661;28;20092;-80
2021/12/18 03:37:28;;;;;;;7.80;6.55;;;18.10;81.90;;;;;;5021569;28;20029;-80
2021/12/18 03:39:54;;;;;;;7.75;6.60;;;18.20;82.00;;;;;;5039235;28;20033;-80
2021/12/18 03:42:20;;;;;;;9.57;6.95;;;18.20;81.70;;;;;;5038347;28;20064;-80
2021/12/18 03:44:45;;;;;;;8.15;7.07;;;18.20;81.70;;;;;;5038839;28;20025;-80
2021/12/18 03:47:11;;;;;;;7.50;6.40;;;18.10;81.40;;;;;;5037632;28;20424;-79
2021/12/18 03:49:37;;;;;;;8.45;6.50;;;18.20;81.60;;;;;;5039048;28;20037;-78
2021/12/18 03:52:03;;;;;;;9.75;7.28;;;18.20;81.50;;;;;;5037884;28;20025;-79
2021/12/18 03:54:29;;;;;;;7.55;6.68;;;18.20;81.60;;;;;;5019292;28;20063;-80
2021/12/18 03:56:54;;;;;;;8.85;6.72;;;18.20;81.70;;;;;;5038734;28;20060;-79
2021/12/18 03:59:20;;;;;;;8.68;7.30;;;18.20;81.10;;;;;;5037961;28;20021;-79
2021/12/18 04:01:46;;;;;;;7.60;6.80;;;18.20;81.60;;;;;;5038517;28;20029;-79
2021/12/18 04:04:12;;;;;;;8.48;7.57;;;18.20;81.50;;;;;;5037936;28;20025;-79
2021/12/18 04:06:39;;;;;;;7.93;6.60;;;18.20;81.80;;;;;;5038681;28;21501;-80
2021/12/18 04:09:05;;;;;;;8.45;7.30;;;18.20;81.50;;;;;;5037937;28;20033;-80
2021/12/18 04:11:31;;;;;;;7.53;6.63;;;18.20;81.60;;;;;;5018877;28;20507;-78
2021/12/18 04:13:56;;;;;;;7.72;6.93;;;18.10;81.50;;;;;;5038559;28;20033;-80
2021/12/18 04:16:22;;;;;;;9.05;7.25;;;18.20;81.30;;;;;;5019740;28;20044;-79
2021/12/18 04:18:48;;;;;;;8.02;7.20;;;18.10;81.10;;;;;;5018748;28;20044;-80
2021/12/18 04:21:13;;;;;;;10.65;7.53;;;18.10;81.20;;;;;;5037662;28;20037;-79
2021/12/18 04:23:40;;;;;;;9.30;7.50;;;18.20;81.20;;;;;;5037790;28;20053;-78
2021/12/18 04:26:05;;;;;;;9.48;7.97;;;18.10;81.20;;;;;;5037933;28;20527;-78
2021/12/18 04:28:31;;;;;;;9.32;6.90;;;18.20;81.00;;;;;;5037239;28;20022;-79
2021/12/18 04:30:57;;;;;;;10.18;7.78;;;18.20;81.00;;;;;;5037686;28;20032;-79
2021/12/18 04:33:22;;;;;;;9.27;7.85;;;18.20;81.20;;;;;;5037845;28;20049;-79
2021/12/18 04:35:48;;;;;;;8.70;7.80;;;18.10;80.80;;;;;;5037553;28;20469;-78
2021/12/18 04:38:14;;;;;;;9.45;8.10;;;18.30;81.00;;;;;;5038850;28;20041;-79
2021/12/18 04:40:41;;;;;;;11.90;8.40;;;18.10;80.70;;;;;;5037812;28;20464;-79
2021/12/18 04:43:07;;;;;;;9.93;8.65;;;18.20;81.00;;;;;;5038308;28;20079;-79
2021/12/18 04:45:33;;;;;;;10.15;8.35;;;18.20;81.20;;;;;;5037145;28;20508;-80
2021/12/18 04:47:59;;;;;;;9.18;7.75;;;18.20;81.50;;;;;;5036293;28;20389;-79
2021/12/18 04:50:25;;;;;;;10.07;8.20;;;18.20;80.60;;;;;;5037098;28;20112;-80
2021/12/18 04:52:51;;;;;;;10.20;8.20;;;18.20;80.70;;;;;;5038548;28;20045;-80
2021/12/18 04:55:17;;;;;;;9.82;8.18;;;18.20;80.90;;;;;;5038335;28;20032;-79
2021/12/18 04:57:43;;;;;;;9.18;7.65;;;18.20;81.10;;;;;;5037125;28;20034;-79
2021/12/18 05:00:12;;;;;;;8.98;8.07;;;18.20;80.80;;;;;;5037766;28;20037;-79
2021/12/18 05:02:41;;;;;;;10.48;8.48;;;18.20;80.90;;;;;;5037315;28;20060;-80
2021/12/18 05:05:09;;;;;;;10.52;9.07;;;18.20;80.00;;;;;;5037949;28;20025;-79
2021/12/18 05:07:35;;;;;;;11.93;8.30;;;18.20;81.20;;;;;;5036503;28;20025;-79
2021/12/18 05:10:02;;;;;;;9.95;8.15;;;18.10;81.60;;;;;;5037278;28;20416;-79
2021/12/18 05:12:27;;;;;;;10.65;8.68;;;18.20;80.90;;;;;;5036684;28;20094;-80
2021/12/18 05:14:53;;;;;;;12.52;9.63;;;18.20;81.00;;;;;;5037092;28;20508;-79
2021/12/18 05:17:19;;;;;;;12.32;9.43;;;18.20;80.90;;;;;;5036723;28;20036;-79
2021/12/18 05:19:44;;;;;;;10.40;9.15;;;18.20;81.00;;;;;;5051796;28;20037;-79
2021/12/18 05:22:10;;;;;;;11.40;9.00;;;18.20;81.10;;;;;;5038065;28;20052;-79
2021/12/18 05:24:36;;;;;;;11.35;9.57;;;18.10;80.90;;;;;;5037582;28;20028;-79
2021/12/18 05:27:02;;;;;;;10.07;8.98;;;18.20;80.90;;;;;;5040094;28;20103;-80
2021/12/18 05:29:28;;;;;;;11.48;9.40;;;18.20;81.10;;;;;;5036345;28;20373;-79
2021/12/18 05:31:53;;;;;;;10.50;9.13;;;18.20;80.80;;;;;;5037256;28;20108;-80
2021/12/18 05:34:24;;;;;;;11.98;9.73;;;18.20;81.10;;;;;;5034789;28;20028;-79
2021/12/18 05:39:22;;;;;;;11.48;9.80;;;18.20;81.00;;;;;;5036187;28;20029;-79
2021/12/18 05:41:50;;;;;;;11.70;10.10;;;18.20;81.00;;;;;;5036178;28;20032;-79
2021/12/18 05:44:18;;;;;;;11.25;9.57;;;18.20;81.10;;;;;;5018214;28;20055;-78
2021/12/18 05:46:44;;;;;;;14.05;10.18;;;18.20;81.20;;;;;;5036477;28;20033;-78
2021/12/18 05:49:10;;;;;;;13.13;10.40;;;18.20;81.00;;;;;;5037486;28;20037;-79
2021/12/18 05:51:36;;;;;;;11.82;10.02;;;18.10;81.00;;;;;;5036461;28;20048;-79
2021/12/18 05:54:02;;;;;;;12.52;10.32;;;18.10;80.60;;;;;;5017305;28;20055;-80
2021/12/18 05:56:28;;;;;;;11.75;10.55;;;18.20;81.10;;;;;;5017446;28;20025;-80
2021/12/18 05:58:54;;;;;;;12.45;10.60;;;18.20;81.20;;;;;;5017831;28;20041;-80
2021/12/18 06:01:26;;;;;;;12.25;10.60;;;18.10;81.00;;;;;;5019782;28;20021;-79
2021/12/18 06:03:52;;;;;;;11.63;9.88;;;18.20;81.30;;;;;;5041519;28;20025;-80
2021/12/18 06:06:18;;;;;;;12.90;11.50;;;18.10;81.40;;;;;;5036009;28;20049;-79
2021/12/18 06:08:44;;;;;;;12.95;10.43;;;18.20;81.70;;;;;;5017836;28;20064;-79
2021/12/18 06:11:14;;;;;;;13.68;10.52;;;18.20;81.60;;;;;;5036307;28;20476;-79
2021/12/18 06:13:41;;;;;;;12.68;10.68;;;18.20;81.70;;;;;;5035534;28;20064;-79
2021/12/18 06:16:07;;;;;;;13.27;10.88;;;18.20;81.70;;;;;;5036325;28;20550;-79
2021/12/18 06:18:34;;;;;;;11.93;10.00;;;18.10;81.00;;;;;;5036375;28;20033;-79
2021/12/18 06:21:01;;;;;;;12.00;10.68;;;18.20;81.40;;;;;;5035624;28;20024;-79
2021/12/18 06:23:27;;;;;;;13.77;11.00;;;18.20;81.60;;;;;;5035675;28;20393;-79
2021/12/18 06:25:52;;;;;;;12.18;10.15;;;18.20;81.70;;;;;;5036197;28;20087;-79
2021/12/18 06:28:18;;;;;;;11.55;9.98;;;18.20;81.50;;;;;;5036405;28;20067;-78
2021/12/18 06:30:43;;;;;;;12.32;10.65;;;18.20;81.30;;;;;;5036384;28;20045;-79
2021/12/18 06:33:09;;;;;;;12.40;10.48;;;18.20;81.60;;;;;;5039793;28;20029;-79
2021/12/18 06:35:35;;;;;;;13.15;9.98;;;18.10;81.00;;;;;;5035481;28;20095;-79
2021/12/18 06:38:01;;;;;;;13.05;10.50;;;18.20;81.30;;;;;;5035734;28;20028;-78
2021/12/18 06:40:26;;;;;;;12.75;10.75;;;18.20;81.30;;;;;;5035257;28;20029;-78
2021/12/18 06:42:52;;;;;;;12.50;10.68;;;18.10;81.20;;;;;;5035832;28;20056;-78
2021/12/18 06:45:18;;;;;;;12.85;11.32;;;18.10;80.90;;;;;;5035617;28;20403;-78
2021/12/18 06:47:44;;;;;;;12.65;11.25;;;18.10;81.40;;;;;;5035938;28;20047;-78
2021/12/18 06:50:10;;;;;;;12.98;10.90;;;18.10;80.80;;;;;;5037975;28;20029;-78
2021/12/18 06:52:36;;;;;;;11.35;10.05;;;18.20;81.30;;;;;;5036268;28;20501;-78
2021/12/18 06:55:03;;;;;;;13.35;11.38;;;18.10;81.10;;;;;;5041757;28;20037;-78
2021/12/18 06:57:28;;;;;;;13.40;12.00;;;18.10;81.10;;;;;;5035551;28;20014;-79
2021/12/18 06:59:54;;;;;;;12.63;10.82;;;18.10;81.50;;;;;;5022502;28;20079;-79
2021/12/18 07:02:20;;;;;;;13.63;11.02;;;18.10;81.00;;;;;;5046569;28;20025;-78
2021/12/18 07:04:45;;;;;;;14.30;10.43;;;18.10;81.30;;;;;;5050209;28;20072;-79
2021/12/18 07:07:11;;;;;;;13.00;11.13;;;18.10;81.30;;;;;;5050872;28;20021;-78
2021/12/18 07:09:37;;;;;;;13.00;10.75;;;18.10;81.30;;;;;;5046124;28;20034;-78
2021/12/18 07:12:03;;;;;;;14.43;11.68;;;18.10;81.50;;;;;;5044077;28;20508;-78
2021/12/18 07:14:28;;;;;;;14.50;11.65;;;18.20;81.50;;;;;;5036272;28;20059;-78
2021/12/18 07:16:54;;;;;;;13.60;11.32;;;18.10;81.50;;;;;;5034643;28;20040;-78
2021/12/18 07:19:19;;;;;;;11.60;9.95;;;18.10;80.80;;;;;;5051496;28;20041;-78
2021/12/18 07:21:45;;;;;;;13.63;11.32;;;18.10;80.60;;;;;;5054756;28;20071;-78
2021/12/18 07:24:11;;;;;;;12.50;10.93;;;18.20;81.40;;;;;;5054655;28;20118;-78
2021/12/18 07:26:37;;;;;;;12.50;10.70;;;18.10;81.50;;;;;;5054019;28;20535;-78
2021/12/18 07:29:03;;;;;;;13.93;11.20;;;18.10;81.50;;;;;;5053066;28;20025;-78
2021/12/18 07:31:28;;;;;;;12.82;11.15;;;18.10;81.60;;;;;;5049466;28;20036;-78
2021/12/18 07:33:54;;;;;;;11.85;10.30;;;18.10;81.20;;;;;;5037709;28;20536;-78
2021/12/18 07:36:20;;;;;;;12.27;10.77;;;18.20;81.30;;;;;;5053451;28;20491;-78
2021/12/18 07:38:46;;;;;;;13.13;10.25;;;18.10;81.50;;;;;;5037671;28;20050;-80
2021/12/18 07:41:12;;;;;;;13.00;11.15;;;18.10;82.20;;;;;;5034417;28;20028;-81
2021/12/18 07:43:38;;;;;;;12.55;10.63;;;18.20;80.90;;;;;;5033742;28;20583;-80
2021/12/18 07:46:04;;;;;;;14.07;9.93;;;18.10;81.80;;;;;;5034059;28;20105;-79
2021/12/18 07:48:29;;;;;;;12.27;9.93;;;18.10;81.70;;;;;;5033733;28;20048;-80
2021/12/18 07:50:55;;;;;;;12.77;10.45;;;18.10;81.70;;;;;;5033952;28;20025;-80
2021/12/18 07:53:23;;;;;;;12.68;10.15;;;18.20;81.70;;;;;;5033595;28;20045;-79
2021/12/18 07:55:49;;;;;;;13.20;11.05;;;18.20;81.70;;;;;;5033866;28;20014;-80
2021/12/18 07:58:15;;;;;;;13.85;10.70;;;18.20;81.40;;;;;;5034110;28;20396;-79
2021/12/18 08:00:40;;;;;;;13.48;9.65;;;18.20;81.90;;;;;;5033544;28;20025;-79
2021/12/18 08:03:06;;;;;;;12.70;10.25;;;18.20;81.70;;;;;;5016015;28;20060;-79
2021/12/18 08:05:31;;;;;;;11.50;9.57;;;18.20;81.50;;;;;;5034364;28;20056;-78
2021/12/18 08:07:57;;;;;;;12.18;9.98;;;18.20;82.00;;;;;;5042738;28;20039;-79
2021/12/18 08:10:23;;;;;;;10.93;9.52;;;18.20;80.20;;;;;;5053237;28;20029;-78
2021/12/18 08:12:48;;;;;;;11.10;9.23;;;18.20;80.00;;;;;;5045263;28;20033;-78
2021/12/18 08:15:14;;;;;;;11.20;9.10;;;18.20;79.90;;;;;;5045422;28;20457;-80
2021/12/18 08:17:40;;;;;;;13.45;9.07;;;18.20;79.50;;;;;;5051540;28;20550;-80
2021/12/18 08:20:07;;;;;;;9.80;8.45;;;18.30;80.00;;;;;;5048814;28;20017;-77
2021/12/18 08:22:33;;;;;;;13.07;9.15;;;18.30;80.00;;;;;;5037370;28;20029;-79
2021/12/18 08:25:00;;;;;;;14.63;10.40;;;18.30;80.10;;;;;;5053281;28;20028;-81
2021/12/18 08:27:27;;;;;;;12.40;9.85;;;18.30;79.80;;;;;;5053664;28;20021;-82
2021/12/18 08:29:52;;;;;;;18.45;10.85;;;18.30;79.80;;;;;;5047732;28;20018;-80
2021/12/18 08:32:18;;;;;;;12.10;9.57;;;18.30;79.70;;;;;;5028866;28;20380;-80
2021/12/18 08:34:44;;;;;;;12.82;10.68;;;18.30;79.70;;;;;;5053060;28;20028;-80
2021/12/18 08:37:10;;;;;;;13.25;10.30;;;18.40;79.90;;;;;;5052993;28;20021;-82
2021/12/18 08:39:36;;;;;;;13.63;9.57;;;18.30;80.10;;;;;;5052380;28;20556;-80
2021/12/18 08:42:04;;;;;;;11.65;9.18;;;18.40;80.40;;;;;;5052662;28;20423;-80
2021/12/18 08:44:31;;;;;;;9.85;8.77;;;18.40;80.30;;;;;;5052601;28;20033;-79
2021/12/18 08:46:57;;;;;;;13.73;9.40;;;18.40;80.20;;;;;;5052936;28;20107;-81
2021/12/18 08:49:24;;;;;;;18.17;9.95;;;18.40;80.20;;;;;;5040500;28;20101;-80
2021/12/18 08:51:50;;;;;;;12.23;9.65;;;18.40;80.40;;;;;;5034770;28;20029;-77
2021/12/18 08:54:15;;;;;;;9.73;8.30;;;18.40;80.30;;;;;;5043743;28;20112;-77
2021/12/18 08:56:41;;;;;;;10.88;9.02;;;18.40;80.90;;;;;;5025006;28;20051;-78
2021/12/18 08:59:07;;;;;;;11.52;9.65;;;18.40;80.50;;;;;;5032274;28;20072;-78
2021/12/18 09:01:32;;;;;;;11.82;9.35;;;18.40;80.40;;;;;;5052322;28;20048;-81
2021/12/18 09:03:58;;;;;;;13.40;10.30;;;18.40;80.30;;;;;;5041044;28;20401;-80
2021/12/18 09:06:24;;;;;;;12.48;9.43;;;18.50;80.30;;;;;;5033276;28;20048;-80
2021/12/18 09:08:51;;;;;;;11.00;9.00;;;18.50;80.40;;;;;;5032564;28;20022;-80
2021/12/18 09:11:16;;;;;;;12.20;9.50;;;18.40;80.30;;;;;;5032757;28;20037;-82
2021/12/18 09:13:42;;;;;;;10.40;8.15;;;18.50;81.20;;;;;;5032198;28;20034;-81
2021/12/18 09:16:08;;;;;;;11.00;9.02;;;18.40;80.90;;;;;;5046499;28;20091;-80
2021/12/18 09:18:33;;;;;;;12.38;8.57;;;18.50;80.60;;;;;;5052054;28;20126;-82
2021/12/18 09:21:00;;;;;;;20.70;10.77;;;;;;;;;;5052268;28;20029;-80
2021/12/18 09:23:26;;;;;;;12.77;10.07;;;;;;;;;;5049249;28;20121;-83
2021/12/18 09:25:52;;;;;;;15.93;10.93;;;;;;;;;;5032243;28;20076;-83
2021/12/18 09:28:18;;;;;;;12.77;10.13;;;;;;;;;;5032228;28;20469;-82
2021/12/18 09:30:44;;;;;;;13.27;10.77;;;;;;;;;;5032634;28;20049;-85
2021/12/18 09:33:13;;;;;;;15.48;11.35;;;;;;;;;;5047162;28;20025;-83
2021/12/18 09:35:39;;;;;;;14.10;10.93;;;;;;;;;;5031303;28;20047;-84
2021/12/18 09:38:06;;;;;;;16.95;11.55;;;;;;;;;;5030741;28;20395;-84
2021/12/18 09:40:32;;;;;;;15.57;12.32;;;;;;;;;;5014186;28;20059;-85
2021/12/18 09:42:58;;;;;;;15.95;11.63;;;;;;;;;;5041037;28;20067;-80
2021/12/18 09:45:24;;;;;;;12.32;10.82;;;;;;;;;;5017134;28;20510;-85
2021/12/18 09:47:50;;;;;;;16.05;11.32;;;;;;;;;;5032376;28;20026;-87
2021/12/18 09:50:18;;;;;;;16.65;10.95;;;;;;;;;;5033629;28;20026;-83
2021/12/18 09:52:44;;;;;;;14.45;11.07;;;;;;;;;;5051978;28;20036;-84
2021/12/18 09:55:11;;;;;;;17.00;12.10;;;;;;;;;;5051630;28;20074;-82
2021/12/18 09:57:37;;;;;;;17.92;12.45;;;;;;;;;;5051397;28;20457;-82
2021/12/18 10:00:08;;;;;;;19.45;12.85;;;;;;;;;;5051517;28;20465;-81
2021/12/18 10:02:34;;;;;;;19.48;13.07;;;;;;;;;;5033351;28;20035;-81
2021/12/18 10:05:00;;;;;;;17.73;13.65;;;;;;;;;;5051444;28;20033;-82
2021/12/18 10:07:27;;;;;;;21.05;13.73;;;;;;;;;;5051237;28;20028;-82
2021/12/18 10:09:57;;;;;;;18.33;13.40;;;;;;;;;;5051469;28;20079;-85
2021/12/18 10:12:25;;;;;;;17.30;12.40;;;;;;;;;;5039737;28;20029;-82
2021/12/18 10:14:55;;;;;;;19.58;13.10;;;;;;;;;;5040712;28;20037;-81
2021/12/18 10:17:27;;;;;;;16.70;12.88;;;;;;;;;;5037850;28;20020;-81
2021/12/18 10:19:55;;;;;;;25.73;14.55;;;;;;;;;;5038440;28;20108;-81
2021/12/18 10:22:21;;;;;;;18.38;14.02;;;;;;;;;;5041145;28;20045;-81
2021/12/18 10:25:04;;;;;;;18.52;13.30;;;;;;;;;;5039426;28;20035;-81
2021/12/18 10:27:30;;;;;;;19.10;13.50;;;;;;;;;;5038051;28;20025;-80
2021/12/18 10:30:08;;;;;;;17.13;12.38;;;;;;;;;;5033206;28;20060;-80
2021/12/18 10:32:34;;;;;;;16.75;13.05;;;;;;;;;;5042841;28;20489;-81
2021/12/18 10:35:00;;;;;;;16.73;12.35;;;;;;;;;;5054572;28;20514;-82
2021/12/18 10:37:27;;;;;;;16.42;12.32;;;;;;;;;;5059445;28;20021;-81
2021/12/18 10:39:53;;;;;;;14.55;11.27;;;;;;;;;;5037516;28;20086;-82
2021/12/18 10:42:28;;;;;;;15.23;11.27;;;;;;;;;;5030365;28;20104;-81
2021/12/18 10:45:09;;;;;;;14.75;12.20;;;;;;;;;;5030439;28;20061;-81
2021/12/18 10:47:44;;;;;;;16.23;11.77;;;;;;;;;;5034581;28;20022;-82
2021/12/18 10:50:16;;;;;;;15.93;10.60;;;;;;;;;;5055201;28;20047;-82
2021/12/18 10:52:42;;;;;;;13.70;10.88;;;;;;;;;;5034432;28;20397;-82
2021/12/18 10:55:08;;;;;;;15.68;11.50;;;;;;;;;;5041114;28;20052;-80
2021/12/18 10:57:34;;;;;;;21.42;11.82;;;;;;;;;;5054285;28;20024;-80
2021/12/18 11:00:00;;;;;;;16.58;11.00;;;;;;;;;;5036528;28;20040;-80
2021/12/18 11:02:27;;;;;;;14.50;11.02;;;;;;;;;;5054566;28;20018;-81
2021/12/18 11:05:12;;;;;;;13.07;11.05;;;;;;;;;;5054723;28;20060;-80
2021/12/18 11:07:42;;;;;;;14.15;10.13;;;;;;;;;;5054505;28;20415;-79
2021/12/18 11:10:54;;;;;;;14.30;10.60;;;;;;;;;;5054724;28;20024;-79
2021/12/18 11:13:41;;;;;;;20.67;11.85;;;;;;;;;;5054372;28;20033;-80
2021/12/18 11:16:07;;;;;;;16.80;11.57;;;;;;;;;;5054156;28;20035;-80
2021/12/18 11:18:34;;;;;;;21.70;10.70;;;;;;;;;;5035946;28;20362;-80
2021/12/18 11:21:00;;;;;;;27.35;11.10;;;;;;;;;;5054483;28;20487;-80
2021/12/18 11:23:32;;;;;;;32.33;12.18;;;;;;;;;;5054207;28;20024;-80
2021/12/18 11:25:58;;;;;;;26.67;11.55;;;;;;;;;;5054440;28;20510;-81
2021/12/18 11:28:27;;;;;;;22.98;10.77;;;;;;;;;;5054176;28;20504;-80
2021/12/18 11:30:53;;;;;;;27.20;11.05;;;;;;;;;;5054271;28;20040;-80
2021/12/18 11:33:19;;;;;;;23.85;10.65;;;;;;;;;;5053891;28;20610;-80
2021/12/18 11:35:45;;;;;;;20.77;10.90;;;;;;;;;;5054446;28;20031;-80
2021/12/18 11:38:14;;;;;;;34.33;11.07;;;;;;;;;;5054180;28;20424;-82
2021/12/18 11:40:40;;;;;;;30.60;12.77;;;;;;;;;;5051606;28;20036;-85
2021/12/18 11:43:26;;;;;;;31.95;11.85;;;;;;;;;;5036652;28;20087;-85
2021/12/18 11:45:52;;;;;;;24.95;11.18;;;;;;;;;;5035776;28;20118;-83
2021/12/18 11:48:18;;;;;;;24.05;11.50;;;;;;;;;;5053698;28;20036;-79
2021/12/18 11:50:46;;;;;;;30.05;12.85;;;;;;;;;;5045736;28;20543;-79
2021/12/18 11:53:19;;;;;;;18.55;10.75;;;;;;;;;;5033861;28;20037;-79
2021/12/18 11:55:51;;;;;;;23.20;11.73;;;;;;;;;;5034237;28;20026;-81
2021/12/18 11:58:21;;;;;;;28.70;11.70;;;;;;;;;;5034153;28;20086;-77
2021/12/18 12:00:50;;;;;;;19.35;11.07;;;;;;;;;;5034262;28;20033;-78
2021/12/18 12:03:28;;;;;;;18.58;10.40;;;;;;;;;;5036263;28;20021;-78
2021/12/18 12:05:55;;;;;;;19.55;11.57;;;;;;;;;;5033778;28;20022;-78
2021/12/18 12:08:28;;;;;;;18.73;10.38;;;;;;;;;;5033567;28;20123;-78
2021/12/18 12:11:07;;;;;;;23.75;11.38;;;;;;;;;;5042844;28;20063;-79
2021/12/18 12:13:53;;;;;;;18.00;11.50;;;;;;;;;;5053297;28;20036;-76
2021/12/18 12:16:19;;;;;;;30.63;13.15;;;;;;;;;;5040396;28;20057;-81
2021/12/18 12:19:04;;;;;;;22.00;10.45;;;;;;;;;;5054065;28;20025;-80
2021/12/18 12:21:42;;;;;;;23.95;10.93;;;;;;;;;;5053417;28;20399;-80
2021/12/18 12:24:08;;;;;;;19.27;10.75;;;;;;;;;;5035570;28;20765;-83
2021/12/18 12:26:35;;;;;;;18.30;10.05;;;;;;;;;;5053100;28;20442;-81
2021/12/18 12:29:02;;;;;;;22.33;9.77;;;;;;;;;;5053388;28;20021;-83
2021/12/18 12:31:28;;;;;;;16.63;9.35;;;;;;;;;;5035150;28;20159;-80
2021/12/18 12:34:14;;;;;;;19.98;9.18;;;;;;;;;;5052784;28;20071;-81
2021/12/18 12:36:45;;;;;;;13.32;9.13;;;;;;;;;;5033160;28;20040;-82
2021/12/18 12:39:12;;;;;;;17.42;8.80;;;;;;;;;;5035206;28;20032;-84
2021/12/18 12:41:38;;;;;;;16.42;8.63;;;;;;;;;;5034376;28;20377;-85
2021/12/18 12:44:13;;;;;;;14.38;8.23;;;;;;;;;;5021260;28;20033;-86
2021/12/18 12:46:39;;;;;;;;;;;;;;;;;;5033377;28;20030;-85
2021/12/18 12:49:18;;;;;;;14.18;7.18;;;;;;;;;;5015661;28;19905;-85
2021/12/18 12:52:04;;;;;;;11.45;7.20;;;;;;;;;;5041880;28;20013;-82
2021/12/18 12:54:49;;;;;;;21.95;9.20;;;;;;;;;;5025275;28;20068;-82
2021/12/18 12:57:25;;;;;;;12.60;7.23;;;;;;;;;;5020735;28;20033;-87
2021/12/18 12:59:54;;;;;;;15.40;7.38;;;;;;;;;;5033010;28;20040;-87
2021/12/18 13:02:21;;;;;;;13.77;7.85;;;;;;;;;;5023408;28;20484;-85
2021/12/18 13:04:47;;;;;;;14.32;7.88;;;;;;;;;;5030690;28;20029;-83
2021/12/18 13:07:13;;;;;;;13.57;7.68;;;;;;;;;;5039314;28;20060;-83
2021/12/18 13:09:47;;;;;;;10.80;7.63;;;;;;;;;;5022891;28;20029;-84
2021/12/18 13:12:13;;;;;;;14.55;7.15;;;;;;;;;;5030614;28;20488;-85
2021/12/18 13:14:43;;;;;;;14.75;7.22;;;;;;;;;;5014999;28;20084;-84
2021/12/18 13:17:21;;;;;;;13.10;7.60;;;;;;;;;;5022030;28;20009;-85
2021/12/18 13:19:54;;;;;;;11.75;6.30;;;;;;;;;;5039326;28;20042;-84
2021/12/18 13:22:23;;;;;;;11.02;6.95;;;;;;;;;;5035706;28;20020;-85
2021/12/18 13:25:03;;;;;;;12.88;7.35;;;;;;;;;;5051286;28;20112;-84
2021/12/18 13:27:29;;;;;;;11.48;7.63;;;;;;;;;;5029057;28;20021;-83
2021/12/18 13:30:14;;;;;;;12.10;7.38;;;;;;;;;;5036466;28;20021;-83
2021/12/18 13:33:00;;;;;;;8.18;6.40;;;;;;;;;;5032641;28;20072;-84
2021/12/18 13:35:27;;;;;;;9.15;6.30;;;;;;;;;;5027123;28;20032;-84
2021/12/18 13:38:02;;;;;;;8.38;5.70;;;;;;;;;;5035116;28;20069;-85
2021/12/18 13:40:29;;;;;;;10.27;7.18;;;;;;;;;;5018870;28;20036;-85
2021/12/18 13:43:04;;;;;;;9.48;6.47;;;;;;;;;;5042141;28;20374;-83
2021/12/18 13:45:30;;;;;;;9.37;6.30;;;;;;;;;;5042452;28;20025;-84
2021/12/18 13:48:01;;;;;;;9.52;6.18;;;;;;;;;;5036540;28;20026;-86
2021/12/18 13:50:27;;;;;;;10.40;6.60;;;19.80;67.60;;;;;;5036259;28;20100;-84
2021/12/18 13:52:55;;;;;;;9.30;6.00;;;19.80;68.20;;;;;;5027368;28;20164;-86
2021/12/18 13:55:44;;;;;;;8.98;6.65;;;19.80;68.60;;;;;;5024762;28;20056;-84
2021/12/18 13:58:19;;;;;;;8.00;5.97;;;19.80;68.30;;;;;;5050680;28;20021;-83
2021/12/18 14:01:12;;;;;;;10.32;6.47;;;19.80;68.20;;;;;;5020854;28;20025;-86
2021/12/18 14:04:01;;;;;;;11.23;6.45;;;19.90;68.10;;;;;;5037473;28;20053;-84